createdAt,value
2022-11-10T00:02:12.507Z,23.07
2022-11-10T00:04:58.431Z,22.27
2022-11-10T00:07:44.514Z,21.57
2022-11-10T00:10:30.923Z,23.50
2022-11-10T00:13:17.150Z,22.50
2022-11-10T00:16:24.657Z,22.40
2022-11-10T00:19:11.031Z,22.83
2022-11-10T00:21:57.875Z,25.33
2022-11-10T00:24:44.913Z,24.40
2022-11-10T00:27:33.556Z,23.13
2022-11-10T00:30:19.357Z,23.97
2022-11-10T00:33:05.745Z,24.83
2022-11-10T00:35:54.304Z,24.97
2022-11-10T00:38:40.271Z,23.10
2022-11-10T00:41:26.315Z,24.27
2022-11-10T00:44:12.257Z,22.60
2022-11-10T00:46:58.311Z,22.70
2022-11-10T00:49:44.325Z,24.40
2022-11-10T00:52:30.216Z,23.80
2022-11-10T00:55:16.582Z,23.37
2022-11-10T00:58:02.378Z,24.10
2022-11-10T01:00:48.716Z,23.40
2022-11-10T01:03:35.422Z,23.00
2022-11-10T01:06:22.571Z,25.07
2022-11-10T01:09:08.269Z,24.57
2022-11-10T01:11:54.294Z,22.57
2022-11-10T01:14:40.081Z,23.93
2022-11-10T01:17:26.064Z,25.93
2022-11-10T01:20:12.527Z,24.87
2022-11-10T01:22:58.594Z,25.67
2022-11-10T01:25:45.279Z,25.63
2022-11-10T01:28:33.087Z,25.37
2022-11-10T01:31:22.085Z,26.57
2022-11-10T01:34:09.142Z,26.80
2022-11-10T01:36:55.268Z,26.23
2022-11-10T01:39:41.476Z,25.37
2022-11-10T01:42:43.643Z,26.70
2022-11-10T01:46:09.095Z,27.47
2022-11-10T01:49:02.344Z,26.93
2022-11-10T01:52:01.152Z,27.37
2022-11-10T01:54:49.893Z,27.80
2022-11-10T01:57:37.882Z,27.43
2022-11-10T02:00:24.411Z,27.23
2022-11-10T02:03:31.833Z,27.23
2022-11-10T02:06:20.282Z,26.77
2022-11-10T02:09:06.477Z,28.23
2022-11-10T02:11:56.539Z,27.37
2022-11-10T02:14:43.902Z,26.70
2022-11-10T02:17:30.044Z,26.93
2022-11-10T02:20:20.394Z,27.20
2022-11-10T02:23:33.646Z,28.97
2022-11-10T02:26:30.965Z,26.70
2022-11-10T02:29:17.050Z,27.93
2022-11-10T02:32:03.244Z,28.33
2022-11-10T02:34:49.378Z,28.37
2022-11-10T02:37:35.458Z,29.27
2022-11-10T02:40:21.534Z,29.83
2022-11-10T02:43:12.982Z,29.97
2022-11-10T02:45:59.344Z,30.73
2022-11-10T02:48:45.516Z,30.63
2022-11-10T02:51:31.839Z,34.03
2022-11-10T02:54:18.151Z,37.07
2022-11-10T02:57:03.909Z,36.93
2022-11-10T02:59:49.935Z,39.73
2022-11-10T03:02:36.062Z,40.90
2022-11-10T03:05:22.370Z,35.80
2022-11-10T03:08:08.581Z,35.50
2022-11-10T03:10:56.684Z,36.33
2022-11-10T03:14:00.335Z,33.93
2022-11-10T03:16:47.218Z,32.27
2022-11-10T03:19:33.233Z,31.33
2022-11-10T03:22:19.287Z,32.27
2022-11-10T03:25:06.596Z,31.53
2022-11-10T03:27:52.679Z,29.97
2022-11-10T03:30:39.495Z,30.50
2022-11-10T03:33:26.502Z,31.63
2022-11-10T03:36:12.301Z,32.17
2022-11-10T03:38:57.991Z,31.53
2022-11-10T03:41:43.906Z,31.80
2022-11-10T03:44:29.956Z,29.63
2022-11-10T03:47:16.192Z,29.07
2022-11-10T03:50:02.414Z,31.10
2022-11-10T03:52:49.008Z,30.43
2022-11-10T03:55:35.018Z,30.13
2022-11-10T03:58:21.043Z,29.43
2022-11-10T04:01:07.365Z,32.53
2022-11-10T04:03:53.423Z,32.00
2022-11-10T04:06:57.970Z,30.77
2022-11-10T04:09:43.969Z,30.97
2022-11-10T04:12:53.504Z,31.57
2022-11-10T04:15:45.139Z,30.37
2022-11-10T04:18:31.269Z,29.13
2022-11-10T04:21:17.650Z,27.50
2022-11-10T04:24:03.757Z,27.13
2022-11-10T04:26:50.244Z,26.93
2022-11-10T04:29:36.477Z,23.77
2022-11-10T04:32:22.307Z,63.83
2022-11-10T04:35:08.828Z,41.47
2022-11-10T04:37:55.318Z,31.00
2022-11-10T04:40:40.898Z,32.20
2022-11-10T04:43:27.287Z,33.53
2022-11-10T04:46:36.310Z,32.70
2022-11-10T04:49:22.120Z,29.50
2022-11-10T04:52:08.195Z,30.07
2022-11-10T04:54:54.190Z,34.23
2022-11-10T04:57:40.643Z,41.20
2022-11-10T05:00:27.178Z,35.73
2022-11-10T05:03:14.895Z,26.50
2022-11-10T05:06:01.058Z,21.47
2022-11-10T05:08:47.659Z,19.97
2022-11-10T05:11:33.534Z,20.33
2022-11-10T05:14:19.401Z,21.43
2022-11-10T05:17:05.433Z,38.87
2022-11-10T05:19:51.747Z,34.63
2022-11-10T05:22:37.704Z,35.00
2022-11-10T05:25:23.411Z,24.00
2022-11-10T05:28:12.133Z,22.40
2022-11-10T05:30:58.584Z,19.80
2022-11-10T05:33:44.649Z,20.60
2022-11-10T05:36:30.650Z,21.00
2022-11-10T05:39:16.478Z,21.67
2022-11-10T05:42:02.590Z,23.23
2022-11-10T05:44:48.376Z,24.97
2022-11-10T05:47:40.284Z,24.97
2022-11-10T05:50:26.836Z,25.00
2022-11-10T05:53:13.299Z,25.67
2022-11-10T05:55:59.095Z,27.00
2022-11-10T05:58:44.862Z,28.50
2022-11-10T06:01:30.686Z,31.17
2022-11-10T06:04:16.370Z,30.87
2022-11-10T06:07:02.796Z,29.20
2022-11-10T06:09:49.200Z,29.70
2022-11-10T06:12:36.666Z,29.77
2022-11-10T06:15:23.669Z,29.20
2022-11-10T06:18:09.410Z,29.53
2022-11-10T06:20:55.183Z,30.57
2022-11-10T06:23:40.934Z,31.70
2022-11-10T06:26:26.572Z,32.10
2022-11-10T06:29:12.568Z,33.50
2022-11-10T06:31:58.616Z,33.13
2022-11-10T06:34:44.822Z,37.03
2022-11-10T06:37:30.817Z,55.07
2022-11-10T06:40:17.009Z,51.30
2022-11-10T06:43:03.472Z,45.10
2022-11-10T06:45:49.888Z,33.20
2022-11-10T06:48:35.746Z,34.10
2022-11-10T06:51:21.665Z,33.03
2022-11-10T06:54:07.997Z,27.27
2022-11-10T06:56:53.726Z,28.17
2022-11-10T06:59:39.616Z,29.93
2022-11-10T07:02:25.420Z,28.60
2022-11-10T07:05:11.028Z,26.90
2022-11-10T07:08:01.251Z,30.83
2022-11-10T07:10:54.533Z,23.47
2022-11-10T07:13:40.684Z,27.70
2022-11-10T07:16:26.878Z,20.23
2022-11-10T07:19:12.922Z,25.40
2022-11-10T07:21:59.116Z,23.53
2022-11-10T07:24:44.927Z,27.60
2022-11-10T07:27:30.979Z,19.80
2022-11-10T07:30:17.072Z,22.37
2022-11-10T07:33:14.749Z,23.20
2022-11-10T07:36:03.982Z,24.93
2022-11-10T07:38:49.870Z,25.47
2022-11-10T07:41:35.858Z,30.30
2022-11-10T07:44:22.156Z,31.00
2022-11-10T07:47:07.964Z,21.97
2022-11-10T07:49:53.743Z,20.70
2022-11-10T07:52:40.384Z,22.67
2022-11-10T07:55:26.125Z,22.53
2022-11-10T07:58:15.819Z,28.93
2022-11-10T08:01:02.930Z,26.20
2022-11-10T08:03:48.899Z,29.63
2022-11-10T08:06:36.782Z,30.10
2022-11-10T08:09:23.241Z,37.43
2022-11-10T08:12:09.508Z,39.03
2022-11-10T08:14:55.202Z,42.07
2022-11-10T08:17:41.231Z,43.87
2022-11-10T08:20:27.371Z,47.57
2022-11-10T08:23:14.551Z,48.23
2022-11-10T08:26:01.976Z,46.93
2022-11-10T08:28:47.919Z,47.57
2022-11-10T08:31:34.386Z,51.30
2022-11-10T08:34:22.179Z,55.50
2022-11-10T08:37:08.090Z,58.57
2022-11-10T08:39:54.061Z,54.20
2022-11-10T08:42:40.056Z,54.90
2022-11-10T08:45:27.060Z,50.80
2022-11-10T08:48:19.332Z,51.90
2022-11-10T08:51:05.446Z,57.60
2022-11-10T08:53:51.553Z,45.80
2022-11-10T08:56:37.690Z,52.93
2022-11-10T08:59:23.789Z,52.00
2022-11-10T09:02:11.253Z,55.33
2022-11-10T09:04:57.006Z,45.83
2022-11-10T09:07:47.999Z,46.83
2022-11-10T09:10:38.348Z,44.53
2022-11-10T09:13:29.501Z,41.80
2022-11-10T09:16:16.734Z,40.40
2022-11-10T09:19:02.421Z,38.97
2022-11-10T09:21:48.693Z,37.73
2022-11-10T09:24:35.109Z,34.93
2022-11-10T09:27:21.128Z,32.60
2022-11-10T09:30:11.809Z,33.70
2022-11-10T09:33:02.254Z,31.50
2022-11-10T09:35:48.109Z,31.87
2022-11-10T09:38:35.202Z,32.03
2022-11-10T09:41:21.548Z,32.57
2022-11-10T09:44:39.060Z,34.10
2022-11-10T09:51:00.468Z,33.87
2022-11-10T09:54:03.364Z,32.93
2022-11-10T09:56:51.427Z,31.70
2022-11-10T09:59:37.671Z,35.67
2022-11-10T10:02:34.375Z,35.00
2022-11-10T10:05:53.792Z,33.87
2022-11-10T10:08:57.477Z,34.63
2022-11-10T10:11:52.230Z,36.57
2022-11-10T10:15:08.882Z,39.47
2022-11-10T10:18:30.445Z,43.90
2022-11-10T10:21:28.659Z,44.23
2022-11-10T10:24:22.132Z,41.60
2022-11-10T10:27:29.090Z,32.47
2022-11-10T10:30:21.179Z,30.93
2022-11-10T10:33:14.684Z,30.43
2022-11-10T10:36:10.213Z,29.37
2022-11-10T10:39:13.508Z,36.13
2022-11-10T10:41:59.834Z,28.50
2022-11-10T10:45:17.580Z,30.53
2022-11-10T10:48:03.885Z,28.03
2022-11-10T10:50:50.550Z,25.40
2022-11-10T10:53:47.940Z,24.83
2022-11-10T10:56:34.180Z,27.17
2022-11-10T10:59:23.158Z,30.93
2022-11-10T11:02:27.757Z,23.33
2022-11-10T11:05:20.193Z,24.67
2022-11-10T11:08:06.168Z,23.27
2022-11-10T11:10:51.969Z,27.00
2022-11-10T11:13:37.918Z,23.80
2022-11-10T11:16:23.954Z,23.77
2022-11-10T11:19:10.074Z,25.10
2022-11-10T11:22:46.987Z,24.13
2022-11-10T11:25:42.428Z,23.37
2022-11-10T11:29:09.842Z,23.77
2022-11-10T11:32:38.280Z,23.73
2022-11-10T11:35:43.321Z,22.70
2022-11-10T11:38:37.957Z,23.08
2022-11-10T11:41:41.493Z,23.05
2022-11-10T11:44:52.870Z,25.92
2022-11-10T11:48:15.465Z,24.50
2022-11-10T11:51:26.812Z,25.58
2022-11-10T11:54:34.211Z,29.75
2022-11-10T11:57:34.489Z,29.50
2022-11-10T12:00:24.811Z,32.40
2022-11-10T12:03:48.771Z,26.77
2022-11-10T12:06:40.116Z,28.95
2022-11-10T12:09:38.291Z,29.15
2022-11-10T12:12:30.947Z,25.55
2022-11-10T12:15:44.271Z,27.88
2022-11-10T12:18:37.817Z,27.48
2022-11-10T12:21:37.140Z,21.02
2022-11-10T12:24:59.950Z,24.98
2022-11-10T12:28:01.327Z,25.50
2022-11-10T12:30:50.728Z,23.73
2022-11-10T12:33:54.199Z,19.80
2022-11-10T12:36:40.433Z,17.65
2022-11-10T12:40:26.509Z,16.65
2022-11-10T12:43:58.946Z,18.52
2022-11-10T12:46:51.995Z,15.98
2022-11-10T12:49:45.094Z,15.65
2022-11-10T12:52:48.042Z,16.73
2022-11-10T12:55:44.924Z,16.27
2022-11-10T12:58:30.962Z,16.77
2022-11-10T13:01:20.901Z,17.17
2022-11-10T13:04:07.004Z,15.88
2022-11-10T13:07:10.255Z,15.50
2022-11-10T13:10:26.981Z,15.88
2022-11-10T13:13:15.402Z,17.20
2022-11-10T13:16:01.583Z,17.55
2022-11-10T13:18:50.273Z,16.90
2022-11-10T13:21:51.572Z,18.77
2022-11-10T13:24:42.963Z,19.95
2022-11-10T13:27:48.347Z,18.60
2022-11-10T13:30:46.321Z,16.20
2022-11-10T13:33:39.985Z,15.77
2022-11-10T13:36:47.444Z,14.68
2022-11-10T13:39:34.647Z,14.77
2022-11-10T13:42:24.108Z,13.15
2022-11-10T13:45:31.993Z,12.77
2022-11-10T13:48:51.024Z,14.23
2022-11-10T13:52:06.282Z,16.58
2022-11-10T13:55:45.169Z,17.08
2022-11-10T13:58:37.303Z,17.77
2022-11-10T14:01:30.541Z,18.23
2022-11-10T14:04:45.299Z,19.25
2022-11-10T14:07:39.791Z,18.45
2022-11-10T14:10:51.806Z,18.23
2022-11-10T14:13:51.236Z,19.95
2022-11-10T14:16:43.191Z,23.20
2022-11-10T14:19:46.345Z,24.75
2022-11-10T14:22:42.622Z,30.75
2022-11-10T14:25:37.526Z,35.70
2022-11-10T14:28:27.171Z,35.67
2022-11-10T14:31:25.660Z,39.13
2022-11-10T14:34:17.453Z,38.40
2022-11-10T14:37:24.924Z,42.10
2022-11-10T14:40:19.351Z,43.20
2022-11-10T14:43:05.141Z,44.42
2022-11-10T14:45:55.118Z,48.07
2022-11-10T14:48:41.131Z,46.35
2022-11-10T14:51:30.753Z,45.67
2022-11-10T14:54:26.770Z,47.40
2022-11-10T14:57:18.861Z,48.00
2022-11-10T15:00:16.714Z,52.67
2022-11-10T15:03:04.242Z,53.63
2022-11-10T15:05:50.484Z,51.67
2022-11-10T15:08:37.656Z,53.83
2022-11-10T15:12:12.358Z,54.70
2022-11-10T15:15:00.819Z,56.40
2022-11-10T15:17:51.620Z,56.20
2022-11-10T15:20:41.072Z,59.10
2022-11-10T15:23:33.953Z,58.20
2022-11-10T15:26:27.981Z,58.57
2022-11-10T15:29:23.408Z,58.43
2022-11-10T15:32:20.105Z,59.07
2022-11-10T15:35:23.606Z,58.03
2022-11-10T15:38:14.545Z,59.60
2022-11-10T15:41:11.670Z,58.63
2022-11-10T15:43:58.060Z,58.83
2022-11-10T15:46:44.885Z,58.80
2022-11-10T15:49:38.129Z,62.73
2022-11-10T15:52:24.648Z,66.77
2022-11-10T15:55:24.753Z,67.93
2022-11-10T15:58:21.857Z,68.23
2022-11-10T16:01:15.006Z,68.73
2022-11-10T16:04:01.020Z,69.67
2022-11-10T16:06:50.704Z,72.13
2022-11-10T16:09:38.699Z,69.37
2022-11-10T16:12:24.613Z,71.80
2022-11-10T16:15:22.239Z,74.43
2022-11-10T16:18:30.719Z,76.40
2022-11-10T16:21:22.506Z,74.57
2022-11-10T16:24:29.507Z,108.73
2022-11-10T16:27:16.406Z,112.13
2022-11-10T16:30:02.493Z,125.80
2022-11-10T16:32:49.577Z,138.13
2022-11-10T16:35:36.009Z,152.93
2022-11-10T16:38:30.484Z,149.00
2022-11-10T16:41:19.386Z,139.93
2022-11-10T16:44:15.987Z,144.77
2022-11-10T16:47:23.301Z,148.77
2022-11-10T16:50:59.707Z,152.87
2022-11-10T16:53:46.919Z,169.20
2022-11-10T16:56:32.666Z,175.20
2022-11-10T16:59:18.723Z,163.87
2022-11-10T17:02:04.764Z,161.70
2022-11-10T17:04:51.617Z,141.23
2022-11-10T17:07:39.127Z,141.63
2022-11-10T17:10:25.744Z,126.60
2022-11-10T17:13:12.913Z,107.93
2022-11-10T17:16:35.906Z,102.60
2022-11-10T17:19:28.100Z,100.73
2022-11-10T17:22:41.622Z,104.57
2022-11-10T17:25:31.915Z,102.47
2022-11-10T17:28:23.712Z,95.47
2022-11-10T17:31:09.948Z,94.83
2022-11-10T17:34:00.562Z,85.57
2022-11-10T17:36:46.612Z,75.37
2022-11-10T17:39:51.215Z,67.47
2022-11-10T17:42:41.470Z,61.37
2022-11-10T17:45:31.215Z,59.03
2022-11-10T17:48:23.780Z,55.43
2022-11-10T17:51:22.673Z,51.90
2022-11-10T17:54:16.625Z,48.77
2022-11-10T17:57:04.477Z,47.23
2022-11-10T17:59:50.324Z,44.37
2022-11-10T18:02:37.939Z,44.53
2022-11-10T18:05:23.991Z,44.17
2022-11-10T18:08:15.037Z,42.53
2022-11-10T18:11:02.560Z,43.93
2022-11-10T18:13:49.888Z,42.10
2022-11-10T18:16:35.756Z,42.27
2022-11-10T18:19:22.483Z,42.47
2022-11-10T18:22:13.458Z,41.53
2022-11-10T18:25:02.901Z,42.37
2022-11-10T18:27:50.956Z,40.93
2022-11-10T18:30:38.618Z,39.90
2022-11-10T18:33:24.913Z,56.07
2022-11-10T18:36:14.101Z,140.53
2022-11-10T18:39:00.851Z,186.63
2022-11-10T18:42:08.027Z,74.63
2022-11-10T18:44:56.285Z,60.30
2022-11-10T18:47:44.659Z,57.57
2022-11-10T18:50:34.295Z,47.03
2022-11-10T18:53:22.870Z,45.33
2022-11-10T18:56:14.242Z,43.80
2022-11-10T18:59:00.644Z,45.20
2022-11-10T19:01:48.203Z,46.67
2022-11-10T19:04:34.593Z,46.17
2022-11-10T19:07:20.541Z,44.93
2022-11-10T19:10:10.334Z,47.50
2022-11-10T19:12:57.265Z,40.90
2022-11-10T19:15:47.459Z,37.67
2022-11-10T19:18:35.422Z,36.40
2022-11-10T19:21:29.112Z,36.83
2022-11-10T19:24:25.820Z,39.03
2022-11-10T19:27:14.139Z,41.07
2022-11-10T19:30:00.713Z,43.80
2022-11-10T19:32:46.990Z,51.87
2022-11-10T19:35:33.467Z,88.77
2022-11-10T19:38:21.175Z,132.20
2022-11-10T19:41:23.894Z,129.23
2022-11-10T19:44:31.630Z,89.60
2022-11-10T19:47:21.022Z,76.07
2022-11-10T19:50:07.744Z,79.90
2022-11-10T19:52:54.533Z,68.97
2022-11-10T19:55:42.083Z,54.93
2022-11-10T19:58:28.723Z,44.10
2022-11-10T20:01:17.973Z,33.53
2022-11-10T20:04:08.842Z,31.60
2022-11-10T20:07:16.624Z,29.73
2022-11-10T20:10:07.381Z,25.50
2022-11-10T20:13:01.173Z,24.83
2022-11-10T20:15:47.795Z,26.13
2022-11-10T20:18:54.620Z,25.33
2022-11-10T20:21:40.952Z,25.17
2022-11-10T20:24:30.245Z,25.77
2022-11-10T20:27:27.460Z,26.43
2022-11-10T20:30:20.905Z,24.73
2022-11-10T20:33:10.069Z,25.03
2022-11-10T20:36:03.961Z,26.00
2022-11-10T20:38:52.416Z,25.07
2022-11-10T20:41:38.448Z,26.50
2022-11-10T20:44:24.969Z,26.13
2022-11-10T20:47:11.530Z,27.93
2022-11-10T20:49:58.112Z,27.87
2022-11-10T20:52:45.753Z,31.43
2022-11-10T20:55:52.658Z,31.00
2022-11-10T20:58:39.944Z,30.17
2022-11-10T21:01:26.344Z,31.13
2022-11-10T21:04:12.757Z,31.27
2022-11-10T21:06:59.242Z,38.43
2022-11-10T21:09:45.194Z,72.83
2022-11-10T21:12:49.716Z,49.23
2022-11-10T21:15:39.240Z,49.57
2022-11-10T21:18:43.240Z,41.20
2022-11-10T21:21:34.595Z,46.50
2022-11-10T21:24:21.286Z,54.87
2022-11-10T21:27:08.625Z,42.23
2022-11-10T21:29:58.931Z,34.13
2022-11-10T21:32:45.317Z,93.17
2022-11-10T21:35:36.788Z,176.67
2022-11-10T21:38:23.666Z,158.77
2022-11-10T21:41:09.635Z,122.57
2022-11-10T21:43:57.832Z,124.77
2022-11-10T21:46:44.783Z,117.20
2022-11-10T21:49:30.963Z,100.73
2022-11-10T21:52:16.757Z,99.47
2022-11-10T21:55:02.527Z,104.73
2022-11-10T21:57:49.161Z,72.33
2022-11-10T22:00:34.915Z,81.80
2022-11-10T22:03:21.218Z,48.30
2022-11-10T22:06:17.589Z,35.73
2022-11-10T22:09:04.901Z,40.27
2022-11-10T22:12:09.798Z,42.70
2022-11-10T22:15:15.771Z,36.00
2022-11-10T22:18:20.390Z,29.47
2022-11-10T22:21:09.170Z,28.43
2022-11-10T22:24:13.821Z,27.13
2022-11-10T22:27:03.281Z,28.00
2022-11-10T22:29:49.539Z,27.10
2022-11-10T22:32:35.507Z,26.83
2022-11-10T22:35:40.508Z,28.57
2022-11-10T22:38:26.821Z,26.83
2022-11-10T22:41:33.580Z,27.03
2022-11-10T22:44:24.740Z,25.23
2022-11-10T22:47:11.002Z,25.40
2022-11-10T22:49:56.769Z,24.27
2022-11-10T22:52:43.250Z,24.57
2022-11-10T22:55:29.266Z,25.97
2022-11-10T22:58:15.150Z,24.77
2022-11-10T23:01:06.316Z,25.63
2022-11-10T23:03:52.615Z,25.50
2022-11-10T23:06:38.891Z,25.07
2022-11-10T23:09:25.003Z,24.57
2022-11-10T23:12:10.920Z,27.67
2022-11-10T23:14:56.912Z,30.07
2022-11-10T23:17:43.016Z,31.13
2022-11-10T23:20:29.012Z,30.87
2022-11-10T23:23:15.105Z,31.53
2022-11-10T23:26:07.618Z,31.20
2022-11-10T23:28:54.358Z,31.30
2022-11-10T23:31:40.215Z,30.57
2022-11-10T23:34:26.310Z,31.13
2022-11-10T23:37:12.278Z,30.00
2022-11-10T23:39:59.534Z,28.03
2022-11-10T23:42:46.027Z,28.70
2022-11-10T23:46:00.219Z,28.80
2022-11-10T23:48:39.608Z,29.00
2022-11-10T23:51:26.837Z,28.97
2022-11-10T23:54:12.841Z,28.50
2022-11-10T23:56:58.980Z,29.40
2022-11-10T23:59:45.043Z,29.50
